sensor_id;sensor_type;location;lat;lon;timestamp;P1;durP1;ratioP1;P2;durP2;ratioP2
55800;SDS011;41730;51.960;20.158;2022-08-19T00:02:13;12.40;;;8.70;;
55800;SDS011;41730;51.960;20.158;2022-08-19T00:04:44;13.40;;;8.40;;
55800;SDS011;41730;51.960;20.158;2022-08-19T00:07:20;11.70;;;8.80;;
55800;SDS011;41730;51.960;20.158;2022-08-19T00:09:52;12.70;;;8.60;;
55800;SDS011;41730;51.960;20.158;2022-08-19T00:12:24;10.10;;;7.50;;
55800;SDS011;41730;51.960;20.158;2022-08-19T00:14:56;11.70;;;8.40;;
55800;SDS011;41730;51.960;20.158;2022-08-19T00:17:28;11.40;;;8.30;;
55800;SDS011;41730;51.960;20.158;2022-08-19T00:19:59;10.30;;;8.40;;
55800;SDS011;41730;51.960;20.158;2022-08-19T00:22:32;13.20;;;8.20;;
55800;SDS011;41730;51.960;20.158;2022-08-19T00:25:05;11.00;;;8.60;;
55800;SDS011;41730;51.960;20.158;2022-08-19T00:27:38;9.30;;;8.30;;
55800;SDS011;41730;51.960;20.158;2022-08-19T00:30:10;12.70;;;8.70;;
55800;SDS011;41730;51.960;20.158;2022-08-19T00:32:44;13.80;;;8.70;;
55800;SDS011;41730;51.960;20.158;2022-08-19T00:35:15;10.60;;;8.20;;
55800;SDS011;41730;51.960;20.158;2022-08-19T00:37:47;9.50;;;8.20;;
55800;SDS011;41730;51.960;20.158;2022-08-19T00:40:21;12.40;;;9.30;;
55800;SDS011;41730;51.960;20.158;2022-08-19T00:42:53;10.30;;;8.30;;
55800;SDS011;41730;51.960;20.158;2022-08-19T00:45:26;12.60;;;8.00;;
55800;SDS011;41730;51.960;20.158;2022-08-19T00:48:03;11.80;;;9.00;;
55800;SDS011;41730;51.960;20.158;2022-08-19T00:50:42;12.00;;;9.10;;
55800;SDS011;41730;51.960;20.158;2022-08-19T00:53:20;12.00;;;8.90;;
55800;SDS011;41730;51.960;20.158;2022-08-19T00:55:55;10.60;;;9.00;;
55800;SDS011;41730;51.960;20.158;2022-08-19T00:58:30;10.20;;;8.70;;
55800;SDS011;41730;51.960;20.158;2022-08-19T01:01:05;12.10;;;8.90;;
55800;SDS011;41730;51.960;20.158;2022-08-19T01:03:38;12.50;;;8.90;;
55800;SDS011;41730;51.960;20.158;2022-08-19T01:06:25;11.90;;;8.90;;
55800;SDS011;41730;51.960;20.158;2022-08-19T01:09:00;12.00;;;8.50;;
55800;SDS011;41730;51.960;20.158;2022-08-19T01:11:34;11.80;;;9.50;;
55800;SDS011;41730;51.960;20.158;2022-08-19T01:14:09;11.50;;;9.30;;
55800;SDS011;41730;51.960;20.158;2022-08-19T01:16:41;11.60;;;9.30;;
55800;SDS011;41730;51.960;20.158;2022-08-19T01:19:18;13.70;;;9.40;;
55800;SDS011;41730;51.960;20.158;2022-08-19T01:21:57;11.70;;;9.90;;
55800;SDS011;41730;51.960;20.158;2022-08-19T01:24:41;12.10;;;9.10;;
55800;SDS011;41730;51.960;20.158;2022-08-19T01:27:17;11.70;;;9.00;;
55800;SDS011;41730;51.960;20.158;2022-08-19T01:29:49;12.20;;;8.80;;
55800;SDS011;41730;51.960;20.158;2022-08-19T01:32:20;11.80;;;9.30;;
55800;SDS011;41730;51.960;20.158;2022-08-19T01:35:01;14.00;;;9.40;;
55800;SDS011;41730;51.960;20.158;2022-08-19T01:37:42;12.30;;;8.80;;
55800;SDS011;41730;51.960;20.158;2022-08-19T01:40:16;14.10;;;9.50;;
55800;SDS011;41730;51.960;20.158;2022-08-19T01:42:49;9.80;;;8.80;;
55800;SDS011;41730;51.960;20.158;2022-08-19T01:45:23;12.30;;;9.30;;
55800;SDS011;41730;51.960;20.158;2022-08-19T01:47:56;10.60;;;9.20;;
55800;SDS011;41730;51.960;20.158;2022-08-19T01:50:30;11.30;;;9.00;;
55800;SDS011;41730;51.960;20.158;2022-08-19T01:53:03;12.00;;;9.30;;
55800;SDS011;41730;51.960;20.158;2022-08-19T01:55:41;14.00;;;8.40;;
55800;SDS011;41730;51.960;20.158;2022-08-19T01:58:14;12.70;;;9.00;;
55800;SDS011;41730;51.960;20.158;2022-08-19T02:00:50;12.40;;;9.60;;
55800;SDS011;41730;51.960;20.158;2022-08-19T02:03:22;13.10;;;9.40;;
55800;SDS011;41730;51.960;20.158;2022-08-19T02:05:55;10.80;;;8.30;;
55800;SDS011;41730;51.960;20.158;2022-08-19T02:08:29;10.30;;;8.00;;
55800;SDS011;41730;51.960;20.158;2022-08-19T02:11:03;12.00;;;8.20;;
55800;SDS011;41730;51.960;20.158;2022-08-19T02:13:35;11.60;;;9.30;;
55800;SDS011;41730;51.960;20.158;2022-08-19T02:16:08;10.10;;;8.90;;
55800;SDS011;41730;51.960;20.158;2022-08-19T02:18:39;11.60;;;9.90;;
55800;SDS011;41730;51.960;20.158;2022-08-19T02:21:11;10.00;;;8.80;;
55800;SDS011;41730;51.960;20.158;2022-08-19T02:23:44;12.00;;;9.70;;
55800;SDS011;41730;51.960;20.158;2022-08-19T02:26:16;12.00;;;9.30;;
55800;SDS011;41730;51.960;20.158;2022-08-19T02:28:48;12.70;;;9.70;;
55800;SDS011;41730;51.960;20.158;2022-08-19T02:31:21;11.90;;;8.90;;
55800;SDS011;41730;51.960;20.158;2022-08-19T02:33:55;14.40;;;8.70;;
55800;SDS011;41730;51.960;20.158;2022-08-19T02:36:27;11.70;;;9.20;;
55800;SDS011;41730;51.960;20.158;2022-08-19T02:38:59;11.80;;;9.40;;
55800;SDS011;41730;51.960;20.158;2022-08-19T02:41:32;13.90;;;9.30;;
55800;SDS011;41730;51.960;20.158;2022-08-19T02:44:05;17.20;;;9.50;;
55800;SDS011;41730;51.960;20.158;2022-08-19T02:46:57;14.10;;;9.20;;
55800;SDS011;41730;51.960;20.158;2022-08-19T02:49:30;11.80;;;8.90;;
55800;SDS011;41730;51.960;20.158;2022-08-19T02:52:02;10.00;;;8.40;;
55800;SDS011;41730;51.960;20.158;2022-08-19T02:54:34;12.40;;;8.70;;
55800;SDS011;41730;51.960;20.158;2022-08-19T02:57:06;11.70;;;9.10;;
55800;SDS011;41730;51.960;20.158;2022-08-19T02:59:38;13.40;;;9.70;;
55800;SDS011;41730;51.960;20.158;2022-08-19T03:02:09;14.10;;;9.30;;
55800;SDS011;41730;51.960;20.158;2022-08-19T03:04:41;11.70;;;9.20;;
55800;SDS011;41730;51.960;20.158;2022-08-19T03:07:14;11.70;;;9.70;;
55800;SDS011;41730;51.960;20.158;2022-08-19T03:09:46;14.90;;;9.80;;
55800;SDS011;41730;51.960;20.158;2022-08-19T03:12:18;13.90;;;9.10;;
55800;SDS011;41730;51.960;20.158;2022-08-19T03:14:50;18.40;;;10.00;;
55800;SDS011;41730;51.960;20.158;2022-08-19T03:17:21;13.10;;;9.20;;
55800;SDS011;41730;51.960;20.158;2022-08-19T03:19:53;12.60;;;9.30;;
55800;SDS011;41730;51.960;20.158;2022-08-19T03:22:25;12.70;;;9.30;;
55800;SDS011;41730;51.960;20.158;2022-08-19T03:24:58;12.40;;;9.30;;
55800;SDS011;41730;51.960;20.158;2022-08-19T03:27:30;11.80;;;9.10;;
55800;SDS011;41730;51.960;20.158;2022-08-19T03:30:07;12.60;;;9.20;;
55800;SDS011;41730;51.960;20.158;2022-08-19T03:32:51;11.40;;;9.50;;
55800;SDS011;41730;51.960;20.158;2022-08-19T03:35:28;10.60;;;9.20;;
55800;SDS011;41730;51.960;20.158;2022-08-19T03:38:07;12.40;;;9.30;;
55800;SDS011;41730;51.960;20.158;2022-08-19T03:40:43;11.90;;;8.60;;
55800;SDS011;41730;51.960;20.158;2022-08-19T03:43:15;11.70;;;9.30;;
55800;SDS011;41730;51.960;20.158;2022-08-19T03:45:47;9.90;;;8.50;;
55800;SDS011;41730;51.960;20.158;2022-08-19T03:48:19;10.60;;;9.20;;
55800;SDS011;41730;51.960;20.158;2022-08-19T03:50:50;12.50;;;9.70;;
55800;SDS011;41730;51.960;20.158;2022-08-19T03:53:22;16.30;;;9.90;;
55800;SDS011;41730;51.960;20.158;2022-08-19T03:55:54;14.30;;;9.40;;
55800;SDS011;41730;51.960;20.158;2022-08-19T03:58:28;11.40;;;9.70;;
55800;SDS011;41730;51.960;20.158;2022-08-19T04:00:59;13.30;;;9.00;;
55800;SDS011;41730;51.960;20.158;2022-08-19T04:03:31;14.30;;;9.70;;
55800;SDS011;41730;51.960;20.158;2022-08-19T04:06:10;13.00;;;9.60;;
55800;SDS011;41730;51.960;20.158;2022-08-19T04:08:44;14.70;;;9.50;;
55800;SDS011;41730;51.960;20.158;2022-08-19T04:11:18;13.20;;;9.30;;
55800;SDS011;41730;51.960;20.158;2022-08-19T04:14:12;12.00;;;9.00;;
55800;SDS011;41730;51.960;20.158;2022-08-19T04:16:45;10.50;;;9.10;;
55800;SDS011;41730;51.960;20.158;2022-08-19T04:19:18;9.60;;;8.50;;
55800;SDS011;41730;51.960;20.158;2022-08-19T04:21:52;13.80;;;8.90;;
55800;SDS011;41730;51.960;20.158;2022-08-19T04:24:24;11.80;;;8.80;;
55800;SDS011;41730;51.960;20.158;2022-08-19T04:26:56;15.50;;;11.30;;
55800;SDS011;41730;51.960;20.158;2022-08-19T04:29:28;20.10;;;13.10;;
55800;SDS011;41730;51.960;20.158;2022-08-19T04:32:01;15.30;;;10.30;;
55800;SDS011;41730;51.960;20.158;2022-08-19T04:34:36;11.50;;;9.20;;
55800;SDS011;41730;51.960;20.158;2022-08-19T04:37:28;13.80;;;9.00;;
55800;SDS011;41730;51.960;20.158;2022-08-19T04:40:03;12.10;;;9.20;;
55800;SDS011;41730;51.960;20.158;2022-08-19T04:42:54;11.60;;;9.00;;
55800;SDS011;41730;51.960;20.158;2022-08-19T04:45:26;12.10;;;8.60;;
55800;SDS011;41730;51.960;20.158;2022-08-19T04:48:11;12.50;;;9.10;;
55800;SDS011;41730;51.960;20.158;2022-08-19T04:50:54;12.70;;;8.60;;
55800;SDS011;41730;51.960;20.158;2022-08-19T04:53:27;11.00;;;7.60;;
55800;SDS011;41730;51.960;20.158;2022-08-19T04:56:06;14.30;;;8.60;;
55800;SDS011;41730;51.960;20.158;2022-08-19T04:58:40;14.50;;;9.10;;
55800;SDS011;41730;51.960;20.158;2022-08-19T05:01:14;12.30;;;8.50;;
55800;SDS011;41730;51.960;20.158;2022-08-19T05:03:51;10.00;;;8.70;;
55800;SDS011;41730;51.960;20.158;2022-08-19T05:06:22;9.90;;;8.50;;
55800;SDS011;41730;51.960;20.158;2022-08-19T05:08:54;11.70;;;9.10;;
55800;SDS011;41730;51.960;20.158;2022-08-19T05:11:28;11.50;;;8.60;;
55800;SDS011;41730;51.960;20.158;2022-08-19T05:14:00;9.90;;;8.00;;
55800;SDS011;41730;51.960;20.158;2022-08-19T05:16:32;10.40;;;8.60;;
55800;SDS011;41730;51.960;20.158;2022-08-19T05:19:04;13.00;;;8.50;;
55800;SDS011;41730;51.960;20.158;2022-08-19T05:21:53;9.40;;;8.40;;
55800;SDS011;41730;51.960;20.158;2022-08-19T05:24:42;13.30;;;9.00;;
55800;SDS011;41730;51.960;20.158;2022-08-19T05:27:36;12.90;;;7.80;;
55800;SDS011;41730;51.960;20.158;2022-08-19T05:30:09;11.00;;;8.10;;
55800;SDS011;41730;51.960;20.158;2022-08-19T05:32:42;11.90;;;8.00;;
55800;SDS011;41730;51.960;20.158;2022-08-19T05:35:13;12.60;;;8.60;;
55800;SDS011;41730;51.960;20.158;2022-08-19T05:37:47;9.20;;;7.80;;
55800;SDS011;41730;51.960;20.158;2022-08-19T05:40:25;7.60;;;6.90;;
55800;SDS011;41730;51.960;20.158;2022-08-19T05:42:57;10.50;;;7.90;;
55800;SDS011;41730;51.960;20.158;2022-08-19T05:45:28;8.80;;;7.60;;
55800;SDS011;41730;51.960;20.158;2022-08-19T05:48:00;9.80;;;7.90;;
55800;SDS011;41730;51.960;20.158;2022-08-19T05:50:32;9.90;;;7.40;;
55800;SDS011;41730;51.960;20.158;2022-08-19T05:53:06;10.90;;;7.80;;
55800;SDS011;41730;51.960;20.158;2022-08-19T05:55:38;15.10;;;8.60;;
55800;SDS011;41730;51.960;20.158;2022-08-19T05:58:10;9.90;;;7.80;;
55800;SDS011;41730;51.960;20.158;2022-08-19T06:00:42;12.90;;;8.20;;
55800;SDS011;41730;51.960;20.158;2022-08-19T06:03:13;8.70;;;7.10;;
55800;SDS011;41730;51.960;20.158;2022-08-19T06:05:45;7.50;;;6.40;;
55800;SDS011;41730;51.960;20.158;2022-08-19T06:08:19;10.90;;;7.80;;
55800;SDS011;41730;51.960;20.158;2022-08-19T06:11:13;10.70;;;7.50;;
55800;SDS011;41730;51.960;20.158;2022-08-19T06:13:47;11.30;;;7.20;;
55800;SDS011;41730;51.960;20.158;2022-08-19T06:16:26;9.90;;;7.00;;
55800;SDS011;41730;51.960;20.158;2022-08-19T06:19:00;10.50;;;7.30;;
55800;SDS011;41730;51.960;20.158;2022-08-19T06:21:36;10.30;;;7.50;;
55800;SDS011;41730;51.960;20.158;2022-08-19T06:24:11;8.50;;;7.40;;
55800;SDS011;41730;51.960;20.158;2022-08-19T06:26:46;9.70;;;7.00;;
55800;SDS011;41730;51.960;20.158;2022-08-19T06:29:20;13.60;;;7.40;;
55800;SDS011;41730;51.960;20.158;2022-08-19T06:34:27;7.90;;;6.60;;
55800;SDS011;41730;51.960;20.158;2022-08-19T06:37:01;9.70;;;7.10;;
55800;SDS011;41730;51.960;20.158;2022-08-19T06:39:35;11.10;;;7.40;;
55800;SDS011;41730;51.960;20.158;2022-08-19T06:42:09;10.30;;;7.60;;
55800;SDS011;41730;51.960;20.158;2022-08-19T06:44:45;8.00;;;7.20;;
55800;SDS011;41730;51.960;20.158;2022-08-19T06:47:21;10.60;;;8.10;;
55800;SDS011;41730;51.960;20.158;2022-08-19T06:49:55;9.90;;;8.00;;
55800;SDS011;41730;51.960;20.158;2022-08-19T06:52:33;8.10;;;7.30;;
55800;SDS011;41730;51.960;20.158;2022-08-19T06:55:08;14.00;;;7.50;;
55800;SDS011;41730;51.960;20.158;2022-08-19T06:57:40;8.70;;;7.40;;
55800;SDS011;41730;51.960;20.158;2022-08-19T07:00:14;10.90;;;7.90;;
55800;SDS011;41730;51.960;20.158;2022-08-19T07:02:46;9.70;;;8.00;;
55800;SDS011;41730;51.960;20.158;2022-08-19T07:05:26;10.30;;;7.30;;
55800;SDS011;41730;51.960;20.158;2022-08-19T07:08:00;9.70;;;7.60;;
55800;SDS011;41730;51.960;20.158;2022-08-19T07:10:33;10.80;;;8.20;;
55800;SDS011;41730;51.960;20.158;2022-08-19T07:13:09;10.60;;;7.00;;
55800;SDS011;41730;51.960;20.158;2022-08-19T07:15:41;8.90;;;7.60;;
55800;SDS011;41730;51.960;20.158;2022-08-19T07:18:15;9.50;;;7.20;;
55800;SDS011;41730;51.960;20.158;2022-08-19T07:20:46;8.50;;;7.40;;
55800;SDS011;41730;51.960;20.158;2022-08-19T07:23:19;9.60;;;7.20;;
55800;SDS011;41730;51.960;20.158;2022-08-19T07:25:51;11.40;;;7.10;;
55800;SDS011;41730;51.960;20.158;2022-08-19T07:28:23;9.20;;;6.30;;
55800;SDS011;41730;51.960;20.158;2022-08-19T07:30:54;14.60;;;7.60;;
55800;SDS011;41730;51.960;20.158;2022-08-19T07:33:26;10.90;;;7.50;;
55800;SDS011;41730;51.960;20.158;2022-08-19T07:36:01;11.90;;;7.30;;
55800;SDS011;41730;51.960;20.158;2022-08-19T07:38:34;8.80;;;6.70;;
55800;SDS011;41730;51.960;20.158;2022-08-19T07:41:08;10.80;;;6.90;;
55800;SDS011;41730;51.960;20.158;2022-08-19T07:46:12;9.90;;;6.60;;
55800;SDS011;41730;51.960;20.158;2022-08-19T07:48:44;11.30;;;6.30;;
55800;SDS011;41730;51.960;20.158;2022-08-19T07:51:19;11.20;;;6.70;;
55800;SDS011;41730;51.960;20.158;2022-08-19T07:54:05;7.80;;;6.10;;
55800;SDS011;41730;51.960;20.158;2022-08-19T07:56:37;7.30;;;6.10;;
55800;SDS011;41730;51.960;20.158;2022-08-19T07:59:10;12.20;;;6.90;;
55800;SDS011;41730;51.960;20.158;2022-08-19T08:01:42;9.00;;;6.60;;
55800;SDS011;41730;51.960;20.158;2022-08-19T08:04:14;8.00;;;6.50;;
55800;SDS011;41730;51.960;20.158;2022-08-19T08:07:04;9.90;;;6.30;;
55800;SDS011;41730;51.960;20.158;2022-08-19T08:09:59;9.90;;;6.50;;
55800;SDS011;41730;51.960;20.158;2022-08-19T08:12:47;9.60;;;6.60;;
55800;SDS011;41730;51.960;20.158;2022-08-19T08:15:37;10.00;;;6.30;;
55800;SDS011;41730;51.960;20.158;2022-08-19T08:18:12;8.00;;;6.20;;
55800;SDS011;41730;51.960;20.158;2022-08-19T08:20:44;8.10;;;6.30;;
55800;SDS011;41730;51.960;20.158;2022-08-19T08:23:16;10.20;;;6.40;;
55800;SDS011;41730;51.960;20.158;2022-08-19T08:25:56;10.30;;;6.40;;
55800;SDS011;41730;51.960;20.158;2022-08-19T08:28:30;9.60;;;6.40;;
55800;SDS011;41730;51.960;20.158;2022-08-19T08:31:02;11.50;;;6.50;;
55800;SDS011;41730;51.960;20.158;2022-08-19T08:33:36;11.50;;;6.60;;
55800;SDS011;41730;51.960;20.158;2022-08-19T08:36:10;10.00;;;6.10;;
55800;SDS011;41730;51.960;20.158;2022-08-19T08:38:43;11.10;;;6.50;;
55800;SDS011;41730;51.960;20.158;2022-08-19T08:41:18;10.00;;;6.90;;
55800;SDS011;41730;51.960;20.158;2022-08-19T08:43:58;10.40;;;6.60;;
55800;SDS011;41730;51.960;20.158;2022-08-19T08:46:34;10.40;;;6.50;;
55800;SDS011;41730;51.960;20.158;2022-08-19T08:49:15;8.80;;;6.90;;
55800;SDS011;41730;51.960;20.158;2022-08-19T08:51:57;12.50;;;7.00;;
55800;SDS011;41730;51.960;20.158;2022-08-19T08:54:36;12.20;;;6.90;;
55800;SDS011;41730;51.960;20.158;2022-08-19T08:57:23;8.90;;;6.70;;
55800;SDS011;41730;51.960;20.158;2022-08-19T09:00:09;12.90;;;6.50;;
55800;SDS011;41730;51.960;20.158;2022-08-19T09:02:45;8.70;;;6.30;;
55800;SDS011;41730;51.960;20.158;2022-08-19T09:05:18;8.70;;;6.60;;
55800;SDS011;41730;51.960;20.158;2022-08-19T09:07:57;6.80;;;5.80;;
55800;SDS011;41730;51.960;20.158;2022-08-19T09:10:34;7.10;;;5.70;;
55800;SDS011;41730;51.960;20.158;2022-08-19T09:13:14;8.80;;;5.80;;
55800;SDS011;41730;51.960;20.158;2022-08-19T09:16:05;9.40;;;6.30;;
55800;SDS011;41730;51.960;20.158;2022-08-19T09:18:44;8.60;;;6.70;;
55800;SDS011;41730;51.960;20.158;2022-08-19T09:21:23;8.90;;;6.10;;
55800;SDS011;41730;51.960;20.158;2022-08-19T09:24:01;10.20;;;6.10;;
55800;SDS011;41730;51.960;20.158;2022-08-19T09:26:34;5.70;;;5.00;;
55800;SDS011;41730;51.960;20.158;2022-08-19T09:29:19;9.90;;;5.60;;
55800;SDS011;41730;51.960;20.158;2022-08-19T09:31:51;5.60;;;5.10;;
55800;SDS011;41730;51.960;20.158;2022-08-19T09:34:23;8.30;;;5.60;;
55800;SDS011;41730;51.960;20.158;2022-08-19T09:37:05;11.30;;;5.50;;
55800;SDS011;41730;51.960;20.158;2022-08-19T09:39:37;7.50;;;5.60;;
55800;SDS011;41730;51.960;20.158;2022-08-19T09:42:11;9.30;;;5.60;;
55800;SDS011;41730;51.960;20.158;2022-08-19T09:44:56;6.60;;;5.60;;
55800;SDS011;41730;51.960;20.158;2022-08-19T09:47:31;12.00;;;5.50;;
55800;SDS011;41730;51.960;20.158;2022-08-19T09:50:09;8.10;;;5.70;;
55800;SDS011;41730;51.960;20.158;2022-08-19T09:52:43;7.00;;;5.20;;
55800;SDS011;41730;51.960;20.158;2022-08-19T09:55:24;7.70;;;5.30;;
55800;SDS011;41730;51.960;20.158;2022-08-19T09:58:00;7.20;;;5.80;;
55800;SDS011;41730;51.960;20.158;2022-08-19T10:00:32;7.60;;;5.40;;
55800;SDS011;41730;51.960;20.158;2022-08-19T10:03:06;9.70;;;5.30;;
55800;SDS011;41730;51.960;20.158;2022-08-19T10:05:40;30.30;;;7.00;;
55800;SDS011;41730;51.960;20.158;2022-08-19T10:08:23;8.80;;;5.50;;
55800;SDS011;41730;51.960;20.158;2022-08-19T10:13:46;8.70;;;5.40;;
55800;SDS011;41730;51.960;20.158;2022-08-19T10:16:19;7.50;;;5.70;;
55800;SDS011;41730;51.960;20.158;2022-08-19T10:18:56;9.90;;;6.20;;
55800;SDS011;41730;51.960;20.158;2022-08-19T10:21:32;7.30;;;5.70;;
55800;SDS011;41730;51.960;20.158;2022-08-19T10:24:07;7.20;;;5.50;;
55800;SDS011;41730;51.960;20.158;2022-08-19T10:26:40;8.60;;;5.90;;
55800;SDS011;41730;51.960;20.158;2022-08-19T10:29:22;6.80;;;5.70;;
55800;SDS011;41730;51.960;20.158;2022-08-19T10:32:00;9.00;;;5.60;;
55800;SDS011;41730;51.960;20.158;2022-08-19T10:34:37;10.20;;;6.10;;
55800;SDS011;41730;51.960;20.158;2022-08-19T10:37:16;8.20;;;5.60;;
55800;SDS011;41730;51.960;20.158;2022-08-19T10:39:59;8.60;;;5.30;;
55800;SDS011;41730;51.960;20.158;2022-08-19T10:42:32;7.60;;;5.40;;
55800;SDS011;41730;51.960;20.158;2022-08-19T10:45:04;7.30;;;5.30;;
55800;SDS011;41730;51.960;20.158;2022-08-19T10:47:37;7.70;;;6.00;;
55800;SDS011;41730;51.960;20.158;2022-08-19T10:50:10;8.60;;;5.40;;
55800;SDS011;41730;51.960;20.158;2022-08-19T10:52:57;7.50;;;5.30;;
55800;SDS011;41730;51.960;20.158;2022-08-19T10:55:36;7.40;;;5.60;;
55800;SDS011;41730;51.960;20.158;2022-08-19T10:58:25;8.50;;;5.70;;
55800;SDS011;41730;51.960;20.158;2022-08-19T11:00:57;7.40;;;5.50;;
55800;SDS011;41730;51.960;20.158;2022-08-19T11:03:30;8.10;;;5.90;;
55800;SDS011;41730;51.960;20.158;2022-08-19T11:06:02;8.90;;;5.80;;
55800;SDS011;41730;51.960;20.158;2022-08-19T11:08:36;7.80;;;5.60;;
55800;SDS011;41730;51.960;20.158;2022-08-19T11:11:09;8.60;;;6.40;;
55800;SDS011;41730;51.960;20.158;2022-08-19T11:13:44;7.20;;;5.40;;
55800;SDS011;41730;51.960;20.158;2022-08-19T11:16:20;9.80;;;6.10;;
55800;SDS011;41730;51.960;20.158;2022-08-19T11:18:54;7.10;;;5.70;;
55800;SDS011;41730;51.960;20.158;2022-08-19T11:21:30;6.80;;;6.00;;
55800;SDS011;41730;51.960;20.158;2022-08-19T11:24:03;8.30;;;5.60;;
55800;SDS011;41730;51.960;20.158;2022-08-19T11:26:38;8.00;;;6.00;;
55800;SDS011;41730;51.960;20.158;2022-08-19T11:29:11;8.20;;;5.90;;
55800;SDS011;41730;51.960;20.158;2022-08-19T11:31:44;6.90;;;6.10;;
55800;SDS011;41730;51.960;20.158;2022-08-19T11:34:19;9.00;;;6.50;;
55800;SDS011;41730;51.960;20.158;2022-08-19T11:36:52;13.40;;;6.70;;
55800;SDS011;41730;51.960;20.158;2022-08-19T11:39:27;9.50;;;6.50;;
55800;SDS011;41730;51.960;20.158;2022-08-19T11:42:00;7.20;;;6.00;;
55800;SDS011;41730;51.960;20.158;2022-08-19T11:44:54;8.90;;;6.40;;
55800;SDS011;41730;51.960;20.158;2022-08-19T11:47:26;7.60;;;5.80;;
55800;SDS011;41730;51.960;20.158;2022-08-19T11:49:58;9.20;;;6.60;;
55800;SDS011;41730;51.960;20.158;2022-08-19T11:52:30;11.50;;;7.00;;
55800;SDS011;41730;51.960;20.158;2022-08-19T11:55:02;7.30;;;6.50;;
55800;SDS011;41730;51.960;20.158;2022-08-19T11:57:36;10.60;;;6.10;;
55800;SDS011;41730;51.960;20.158;2022-08-19T12:00:10;9.20;;;6.40;;
55800;SDS011;41730;51.960;20.158;2022-08-19T12:02:43;11.00;;;6.60;;
55800;SDS011;41730;51.960;20.158;2022-08-19T12:05:14;9.60;;;6.70;;
55800;SDS011;41730;51.960;20.158;2022-08-19T12:07:46;7.80;;;6.50;;
55800;SDS011;41730;51.960;20.158;2022-08-19T12:10:18;10.60;;;6.20;;
55800;SDS011;41730;51.960;20.158;2022-08-19T12:12:53;7.70;;;6.00;;
55800;SDS011;41730;51.960;20.158;2022-08-19T12:15:26;9.20;;;6.70;;
55800;SDS011;41730;51.960;20.158;2022-08-19T12:18:04;7.10;;;6.20;;
55800;SDS011;41730;51.960;20.158;2022-08-19T12:20:37;8.60;;;6.10;;
55800;SDS011;41730;51.960;20.158;2022-08-19T12:23:14;8.90;;;6.20;;
55800;SDS011;41730;51.960;20.158;2022-08-19T12:25:46;11.00;;;6.00;;
55800;SDS011;41730;51.960;20.158;2022-08-19T12:28:20;7.50;;;6.10;;
55800;SDS011;41730;51.960;20.158;2022-08-19T12:30:55;9.50;;;5.70;;
55800;SDS011;41730;51.960;20.158;2022-08-19T12:33:30;7.80;;;6.10;;
55800;SDS011;41730;51.960;20.158;2022-08-19T12:36:02;8.80;;;6.30;;
55800;SDS011;41730;51.960;20.158;2022-08-19T12:38:38;9.40;;;6.20;;
55800;SDS011;41730;51.960;20.158;2022-08-19T12:41:12;7.90;;;6.60;;
55800;SDS011;41730;51.960;20.158;2022-08-19T12:43:46;8.00;;;6.50;;
55800;SDS011;41730;51.960;20.158;2022-08-19T12:46:19;9.00;;;6.20;;
55800;SDS011;41730;51.960;20.158;2022-08-19T12:48:54;8.80;;;6.10;;
55800;SDS011;41730;51.960;20.158;2022-08-19T12:51:31;6.50;;;5.80;;
55800;SDS011;41730;51.960;20.158;2022-08-19T12:54:05;7.80;;;6.00;;
55800;SDS011;41730;51.960;20.158;2022-08-19T12:56:37;7.90;;;5.50;;
55800;SDS011;41730;51.960;20.158;2022-08-19T12:59:10;6.50;;;5.90;;
55800;SDS011;41730;51.960;20.158;2022-08-19T13:01:44;9.70;;;6.00;;
55800;SDS011;41730;51.960;20.158;2022-08-19T13:04:17;8.20;;;6.50;;
55800;SDS011;41730;51.960;20.158;2022-08-19T13:06:49;10.00;;;6.10;;
55800;SDS011;41730;51.960;20.158;2022-08-19T13:09:20;8.60;;;6.00;;
55800;SDS011;41730;51.960;20.158;2022-08-19T13:11:53;9.40;;;6.10;;
55800;SDS011;41730;51.960;20.158;2022-08-19T13:14:25;7.60;;;6.30;;
55800;SDS011;41730;51.960;20.158;2022-08-19T13:17:00;8.20;;;5.70;;
55800;SDS011;41730;51.960;20.158;2022-08-19T13:19:32;10.30;;;5.70;;
55800;SDS011;41730;51.960;20.158;2022-08-19T13:22:05;8.70;;;5.50;;
55800;SDS011;41730;51.960;20.158;2022-08-19T13:24:42;6.40;;;5.40;;
55800;SDS011;41730;51.960;20.158;2022-08-19T13:27:14;10.30;;;5.90;;
55800;SDS011;41730;51.960;20.158;2022-08-19T13:29:45;8.10;;;6.50;;
55800;SDS011;41730;51.960;20.158;2022-08-19T13:32:34;9.30;;;6.00;;
55800;SDS011;41730;51.960;20.158;2022-08-19T13:35:23;9.20;;;6.10;;
55800;SDS011;41730;51.960;20.158;2022-08-19T13:37:57;10.70;;;5.40;;
55800;SDS011;41730;51.960;20.158;2022-08-19T13:40:38;8.80;;;5.90;;
55800;SDS011;41730;51.960;20.158;2022-08-19T13:43:10;7.30;;;5.60;;
55800;SDS011;41730;51.960;20.158;2022-08-19T13:45:50;7.80;;;6.10;;
55800;SDS011;41730;51.960;20.158;2022-08-19T13:48:25;8.40;;;5.90;;
55800;SDS011;41730;51.960;20.158;2022-08-19T13:50:56;8.00;;;5.60;;
55800;SDS011;41730;51.960;20.158;2022-08-19T13:53:28;6.40;;;5.70;;
55800;SDS011;41730;51.960;20.158;2022-08-19T13:55:59;6.60;;;5.70;;
55800;SDS011;41730;51.960;20.158;2022-08-19T13:58:34;10.00;;;5.30;;
55800;SDS011;41730;51.960;20.158;2022-08-19T14:01:06;7.70;;;5.60;;
55800;SDS011;41730;51.960;20.158;2022-08-19T14:03:38;9.60;;;5.50;;
55800;SDS011;41730;51.960;20.158;2022-08-19T14:06:10;9.70;;;6.00;;
55800;SDS011;41730;51.960;20.158;2022-08-19T14:08:41;7.00;;;5.20;;
55800;SDS011;41730;51.960;20.158;2022-08-19T14:11:14;6.20;;;5.40;;
55800;SDS011;41730;51.960;20.158;2022-08-19T14:13:52;6.60;;;5.50;;
55800;SDS011;41730;51.960;20.158;2022-08-19T14:16:25;9.10;;;5.50;;
55800;SDS011;41730;51.960;20.158;2022-08-19T14:18:58;7.60;;;5.50;;
55800;SDS011;41730;51.960;20.158;2022-08-19T14:21:30;9.40;;;5.60;;
55800;SDS011;41730;51.960;20.158;2022-08-19T14:24:08;10.60;;;5.60;;
55800;SDS011;41730;51.960;20.158;2022-08-19T14:26:40;7.70;;;5.90;;
55800;SDS011;41730;51.960;20.158;2022-08-19T14:29:12;9.50;;;5.40;;
55800;SDS011;41730;51.960;20.158;2022-08-19T14:31:44;7.50;;;5.70;;
55800;SDS011;41730;51.960;20.158;2022-08-19T14:34:16;7.00;;;5.30;;
55800;SDS011;41730;51.960;20.158;2022-08-19T14:36:48;9.30;;;5.80;;
55800;SDS011;41730;51.960;20.158;2022-08-19T14:39:20;7.10;;;5.80;;
55800;SDS011;41730;51.960;20.158;2022-08-19T14:41:52;7.50;;;5.60;;
55800;SDS011;41730;51.960;20.158;2022-08-19T14:44:24;9.30;;;5.40;;
55800;SDS011;41730;51.960;20.158;2022-08-19T14:46:57;7.10;;;5.30;;
55800;SDS011;41730;51.960;20.158;2022-08-19T14:49:29;6.50;;;5.80;;
55800;SDS011;41730;51.960;20.158;2022-08-19T14:52:08;9.00;;;5.90;;
55800;SDS011;41730;51.960;20.158;2022-08-19T14:54:39;8.70;;;5.20;;
55800;SDS011;41730;51.960;20.158;2022-08-19T14:57:12;9.40;;;6.00;;
55800;SDS011;41730;51.960;20.158;2022-08-19T14:59:44;8.50;;;5.80;;
55800;SDS011;41730;51.960;20.158;2022-08-19T15:02:17;8.90;;;6.00;;
55800;SDS011;41730;51.960;20.158;2022-08-19T15:05:02;7.60;;;6.10;;
55800;SDS011;41730;51.960;20.158;2022-08-19T15:07:35;8.10;;;5.90;;
55800;SDS011;41730;51.960;20.158;2022-08-19T15:10:09;7.80;;;5.60;;
55800;SDS011;41730;51.960;20.158;2022-08-19T15:12:43;8.30;;;5.70;;
55800;SDS011;41730;51.960;20.158;2022-08-19T15:15:18;8.20;;;6.30;;
55800;SDS011;41730;51.960;20.158;2022-08-19T15:17:54;6.40;;;5.30;;
55800;SDS011;41730;51.960;20.158;2022-08-19T15:20:44;7.70;;;5.60;;
55800;SDS011;41730;51.960;20.158;2022-08-19T15:23:38;9.70;;;6.00;;